Terminal Aerodrome Forecast
Issued by NWS

Home | Current Version | Previous Version | Text Only | Print | Product List | Glossary On
Versions: 1 2 3 4 5 6 7 8 9 10 11 12 13 14 15 16 17 18 19 20
000
FTAK31 PAFA 280530
TAFAOM
TAF
PAOM 280530Z 2806/2906 10017KT P6SM VCSH SCT029 BKN045 OVC070
     FM281000 09008KT 3SM -SHRA BR BKN015 OVC025
     FM282000 12016KT 6SM -SHRA BR SCT015 BKN025 OVC035=

USA.gov is the U.S. government's official web portal to all federal, state and local government web resources and services.